createdAt,value
2023-02-03T00:01:51.834Z,5.27
2023-02-03T00:04:20.279Z,5.63
2023-02-03T00:06:50.878Z,5.67
2023-02-03T00:09:20.382Z,5.10
2023-02-03T00:11:49.238Z,6.27
2023-02-03T00:14:17.902Z,6.00
2023-02-03T00:16:46.304Z,5.53
2023-02-03T00:19:16.529Z,5.17
2023-02-03T00:21:46.327Z,5.17
2023-02-03T00:24:16.233Z,6.00
2023-02-03T00:26:45.335Z,5.20
2023-02-03T00:29:13.901Z,4.97
2023-02-03T00:31:42.784Z,5.63
2023-02-03T00:34:11.229Z,6.13
2023-02-03T00:36:43.068Z,5.37
2023-02-03T00:39:11.584Z,4.13
2023-02-03T00:41:41.494Z,5.77
2023-02-03T00:44:10.027Z,5.40
2023-02-03T00:46:38.512Z,5.07
2023-02-03T00:49:07.471Z,5.10
2023-02-03T00:51:37.010Z,5.37
2023-02-03T00:54:05.627Z,4.27
2023-02-03T00:56:33.975Z,4.90
2023-02-03T00:59:04.172Z,4.57
2023-02-03T01:01:33.146Z,6.57
2023-02-03T01:04:01.810Z,4.40
2023-02-03T01:06:30.893Z,4.87
2023-02-03T01:08:59.486Z,6.70
2023-02-03T01:11:29.513Z,5.30
2023-02-03T01:13:59.390Z,5.77
2023-02-03T01:16:31.645Z,5.67
2023-02-03T01:19:00.199Z,6.33
2023-02-03T01:21:29.896Z,5.10
2023-02-03T01:23:59.741Z,6.37
2023-02-03T01:26:28.601Z,5.07
2023-02-03T01:28:59.355Z,6.23
2023-02-03T01:31:33.520Z,5.90
2023-02-03T01:34:02.435Z,5.00
2023-02-03T01:36:33.685Z,6.20
2023-02-03T01:39:05.142Z,5.97
2023-02-03T01:41:37.035Z,6.10
2023-02-03T01:44:42.941Z,5.00
2023-02-03T01:47:24.790Z,6.47
2023-02-03T01:50:01.937Z,5.40
2023-02-03T01:52:31.513Z,6.33
2023-02-03T01:55:04.992Z,5.80
2023-02-03T01:57:38.353Z,5.40
2023-02-03T02:00:09.607Z,5.20
2023-02-03T02:02:48.875Z,6.37
2023-02-03T02:05:25.839Z,5.63
2023-02-03T02:07:55.163Z,6.13
2023-02-03T02:10:23.585Z,5.67
2023-02-03T02:12:52.728Z,6.43
2023-02-03T02:15:24.575Z,5.40
2023-02-03T02:18:15.602Z,4.47
2023-02-03T02:21:23.928Z,4.97
2023-02-03T02:24:39.035Z,4.47
2023-02-03T02:27:19.167Z,4.93
2023-02-03T02:30:25.889Z,6.20
2023-02-03T02:33:08.481Z,5.97
2023-02-03T02:35:50.291Z,5.33
2023-02-03T02:38:34.281Z,5.07
2023-02-03T02:41:11.407Z,5.23
2023-02-03T02:43:43.898Z,4.40
2023-02-03T02:46:15.894Z,4.87
2023-02-03T02:48:51.153Z,5.33
2023-02-03T02:51:23.662Z,4.83
2023-02-03T02:53:56.498Z,4.87
2023-02-03T02:56:26.534Z,4.97
2023-02-03T02:58:57.776Z,4.00
2023-02-03T03:01:27.223Z,4.77
2023-02-03T03:03:58.220Z,4.27
2023-02-03T03:06:33.105Z,5.00
2023-02-03T03:09:07.170Z,5.60
2023-02-03T03:11:42.352Z,4.47
2023-02-03T03:14:13.835Z,5.83
2023-02-03T03:16:51.064Z,3.90
2023-02-03T03:19:25.700Z,4.13
2023-02-03T03:21:57.216Z,4.77
2023-02-03T03:24:30.295Z,4.03
2023-02-03T03:27:06.341Z,5.90
2023-02-03T03:29:42.258Z,5.47
2023-02-03T03:32:11.235Z,3.97
2023-02-03T03:34:41.576Z,5.70
2023-02-03T03:37:17.216Z,3.90
2023-02-03T03:39:50.116Z,4.33
2023-02-03T03:42:26.354Z,3.37
2023-02-03T03:45:04.674Z,4.83
2023-02-03T03:47:38.002Z,3.20
2023-02-03T03:50:12.686Z,3.53
2023-02-03T03:52:42.931Z,3.13
2023-02-03T03:55:14.767Z,2.97
2023-02-03T03:57:49.188Z,3.63
2023-02-03T04:00:21.697Z,3.07
2023-02-03T04:02:56.864Z,3.57
2023-02-03T04:05:28.116Z,3.20
2023-02-03T04:07:56.936Z,2.50
2023-02-03T04:10:32.499Z,2.93
2023-02-03T04:13:00.985Z,3.00
2023-02-03T04:15:29.743Z,3.40
2023-02-03T04:17:58.486Z,2.60
2023-02-03T04:20:28.766Z,2.60
2023-02-03T04:22:58.060Z,3.07
2023-02-03T04:25:27.532Z,3.50
2023-02-03T04:27:56.688Z,2.37
2023-02-03T04:30:25.299Z,3.13
2023-02-03T04:32:53.979Z,3.73
2023-02-03T04:35:22.547Z,5.00
2023-02-03T04:37:52.615Z,2.90
2023-02-03T04:40:21.317Z,2.50
2023-02-03T04:42:49.670Z,3.73
2023-02-03T04:45:18.277Z,3.37
2023-02-03T04:47:46.887Z,5.00
2023-02-03T04:50:15.242Z,3.37
2023-02-03T04:52:43.766Z,2.87
2023-02-03T04:55:13.643Z,3.43
2023-02-03T04:57:41.985Z,3.77
2023-02-03T05:00:12.574Z,3.30
2023-02-03T05:02:41.481Z,3.90
2023-02-03T05:05:10.371Z,3.97
2023-02-03T05:07:38.768Z,5.13
2023-02-03T05:10:08.319Z,4.07
2023-02-03T05:12:38.332Z,3.13
2023-02-03T05:15:07.984Z,2.77
2023-02-03T05:17:38.932Z,2.83
2023-02-03T05:20:09.054Z,2.90
2023-02-03T05:22:37.968Z,3.27
2023-02-03T05:25:07.515Z,3.40
2023-02-03T05:27:38.764Z,4.20
2023-02-03T05:30:08.544Z,4.73
2023-02-03T05:32:36.902Z,4.37
2023-02-03T05:35:05.855Z,3.83
2023-02-03T05:37:34.271Z,4.43
2023-02-03T05:40:16.583Z,3.13
2023-02-03T05:42:49.874Z,2.30
2023-02-03T05:45:18.731Z,3.10
2023-02-03T05:47:47.781Z,3.50
2023-02-03T05:50:16.796Z,2.90
2023-02-03T05:52:45.377Z,3.20
2023-02-03T05:55:13.777Z,3.90
2023-02-03T05:57:42.978Z,3.03
2023-02-03T06:00:15.196Z,2.53
2023-02-03T06:02:43.597Z,3.10
2023-02-03T06:05:12.162Z,3.97
2023-02-03T06:07:40.465Z,3.70
2023-02-03T06:10:10.080Z,2.07
2023-02-03T06:12:39.371Z,2.23
2023-02-03T06:15:09.542Z,2.73
2023-02-03T06:17:39.470Z,2.97
2023-02-03T06:20:10.092Z,4.03
2023-02-03T06:22:38.467Z,4.03
2023-02-03T06:25:08.144Z,2.77
2023-02-03T06:27:37.101Z,2.90
2023-02-03T06:30:06.554Z,3.17
2023-02-03T06:32:35.027Z,3.00
2023-02-03T06:35:05.378Z,3.07
2023-02-03T06:37:35.765Z,2.70
2023-02-03T06:40:04.836Z,2.47
2023-02-03T06:42:33.759Z,2.70
2023-02-03T06:45:02.167Z,2.90
2023-02-03T06:47:30.570Z,2.40
2023-02-03T06:49:59.255Z,4.33
2023-02-03T06:52:29.055Z,3.37
2023-02-03T06:54:57.578Z,2.43
2023-02-03T06:57:26.041Z,3.93
2023-02-03T06:59:55.091Z,2.90
2023-02-03T07:02:23.746Z,2.37
2023-02-03T07:04:52.271Z,3.07
2023-02-03T07:07:20.723Z,2.10
2023-02-03T07:09:50.653Z,3.20
2023-02-03T07:12:19.003Z,2.70
2023-02-03T07:14:47.459Z,2.60
2023-02-03T07:17:15.891Z,2.97
2023-02-03T07:19:46.048Z,2.47
2023-02-03T07:22:15.451Z,4.40
2023-02-03T07:24:43.822Z,2.40
2023-02-03T07:27:13.672Z,4.50
2023-02-03T07:29:42.111Z,1.67
2023-02-03T07:32:11.155Z,3.10
2023-02-03T07:34:39.712Z,2.23
2023-02-03T07:37:08.116Z,2.50
2023-02-03T07:39:36.575Z,3.87
2023-02-03T07:42:05.285Z,3.00
2023-02-03T07:44:40.244Z,4.83
2023-02-03T07:47:09.774Z,4.73
2023-02-03T07:49:38.412Z,2.77
2023-02-03T07:52:06.854Z,3.27
2023-02-03T07:54:35.296Z,2.60
2023-02-03T07:57:03.764Z,2.80
2023-02-03T07:59:32.077Z,4.77
2023-02-03T08:02:01.914Z,2.20
2023-02-03T08:04:30.583Z,3.70
2023-02-03T08:06:59.108Z,2.60
2023-02-03T08:09:27.547Z,2.37
2023-02-03T08:11:55.903Z,3.60
2023-02-03T08:14:24.395Z,2.93
2023-02-03T08:16:52.783Z,2.60
2023-02-03T08:19:22.545Z,2.40
2023-02-03T08:21:51.412Z,3.60
2023-02-03T08:24:19.904Z,3.53
2023-02-03T08:26:48.510Z,2.43
2023-02-03T08:29:17.000Z,3.47
2023-02-03T08:31:45.524Z,2.90
2023-02-03T08:34:14.096Z,3.43
2023-02-03T08:36:44.563Z,2.30
2023-02-03T08:39:13.481Z,1.97
2023-02-03T08:41:41.935Z,2.73
2023-02-03T08:44:10.717Z,2.53
2023-02-03T08:46:43.492Z,4.97
2023-02-03T08:49:12.296Z,2.27
2023-02-03T08:51:41.577Z,2.77
2023-02-03T08:54:11.385Z,2.30
2023-02-03T08:56:40.427Z,3.73
2023-02-03T08:59:09.283Z,3.30
2023-02-03T09:01:37.861Z,2.13
2023-02-03T09:04:08.318Z,2.20
2023-02-03T09:06:37.771Z,3.03
2023-02-03T09:09:06.433Z,2.80
2023-02-03T09:11:36.765Z,4.77
2023-02-03T09:14:07.368Z,3.03
2023-02-03T09:16:35.931Z,5.93
2023-02-03T09:19:04.464Z,2.67
2023-02-03T09:21:39.444Z,3.13
2023-02-03T09:24:15.234Z,2.43
2023-02-03T09:26:45.184Z,2.90
2023-02-03T09:29:13.909Z,2.47
2023-02-03T09:31:42.357Z,2.53
2023-02-03T09:34:11.171Z,2.27
2023-02-03T09:36:41.294Z,3.67
2023-02-03T09:39:10.640Z,2.97
2023-02-03T09:42:11.638Z,2.40
2023-02-03T09:44:47.802Z,2.87
2023-02-03T09:47:19.781Z,3.73
2023-02-03T09:49:52.668Z,2.57
2023-02-03T09:52:23.708Z,2.70
2023-02-03T09:55:04.178Z,3.63
2023-02-03T09:57:43.637Z,3.87
2023-02-03T10:00:23.124Z,4.27
2023-02-03T10:03:00.363Z,2.73
2023-02-03T10:05:45.812Z,3.50
2023-02-03T10:08:27.349Z,3.40
2023-02-03T10:11:13.393Z,5.57
2023-02-03T10:13:53.397Z,3.20
2023-02-03T10:16:43.247Z,2.73
2023-02-03T10:19:20.707Z,2.80
2023-02-03T10:21:55.513Z,2.40
2023-02-03T10:24:31.433Z,2.43
2023-02-03T10:27:00.331Z,4.50
2023-02-03T10:29:37.679Z,3.93
2023-02-03T10:32:10.836Z,4.30
2023-02-03T10:34:40.868Z,4.77
2023-02-03T10:37:22.501Z,2.90
2023-02-03T10:39:53.394Z,5.40
2023-02-03T10:42:23.562Z,2.73
2023-02-03T10:44:58.241Z,2.53
2023-02-03T10:47:35.021Z,2.97
2023-02-03T10:50:08.891Z,2.20
2023-02-03T10:52:37.972Z,3.60
2023-02-03T10:55:11.477Z,3.93
2023-02-03T10:57:41.975Z,2.57
2023-02-03T11:00:25.195Z,2.83
2023-02-03T11:02:58.866Z,4.37
2023-02-03T11:05:27.527Z,3.20
2023-02-03T11:07:57.021Z,5.50
2023-02-03T11:10:36.857Z,3.00
2023-02-03T11:13:22.541Z,3.07
2023-02-03T11:15:59.581Z,5.00
2023-02-03T11:18:40.897Z,5.73
2023-02-03T11:21:17.679Z,3.83
2023-02-03T11:23:55.387Z,5.80
2023-02-03T11:26:28.597Z,5.53
2023-02-03T11:29:00.470Z,5.73
2023-02-03T11:31:34.593Z,4.37
2023-02-03T11:34:07.047Z,4.33
2023-02-03T11:36:36.801Z,3.73
2023-02-03T11:39:28.294Z,4.67
2023-02-03T11:41:57.865Z,3.67
2023-02-03T11:44:31.087Z,5.30
2023-02-03T11:47:05.390Z,3.13
2023-02-03T11:50:03.645Z,3.10
2023-02-03T11:53:07.378Z,2.73
2023-02-03T11:55:49.824Z,4.20
2023-02-03T11:59:15.510Z,4.93
2023-02-03T12:02:37.475Z,4.70
2023-02-03T12:05:26.217Z,5.60
2023-02-03T12:08:08.599Z,4.87
2023-02-03T12:10:49.335Z,3.73
2023-02-03T12:13:35.173Z,4.07
2023-02-03T12:16:21.006Z,3.80
2023-02-03T12:19:03.149Z,4.10
2023-02-03T12:21:45.044Z,3.17
2023-02-03T12:24:35.823Z,3.40
2023-02-03T12:27:18.766Z,4.67
2023-02-03T12:29:52.311Z,3.87
2023-02-03T12:32:30.829Z,3.70
2023-02-03T12:35:12.664Z,4.30
2023-02-03T12:37:49.737Z,4.13
2023-02-03T12:40:24.168Z,4.73
2023-02-03T12:42:58.636Z,3.37
2023-02-03T12:45:30.976Z,5.33
2023-02-03T12:48:06.144Z,3.37
2023-02-03T12:50:42.443Z,4.13
2023-02-03T12:53:19.920Z,2.77
2023-02-03T12:56:02.897Z,4.10
2023-02-03T12:58:36.259Z,3.73
2023-02-03T13:01:10.305Z,2.87
2023-02-03T13:03:47.464Z,6.57
2023-02-03T13:06:23.933Z,3.07
2023-02-03T13:09:02.132Z,4.50
2023-02-03T13:11:37.744Z,4.37
2023-02-03T13:14:17.001Z,4.00
2023-02-03T13:16:53.321Z,3.33
2023-02-03T13:19:26.841Z,1.83
2023-02-03T13:21:55.395Z,3.47
2023-02-03T13:24:29.001Z,3.83
2023-02-03T13:27:17.949Z,3.60
2023-02-03T13:30:09.992Z,3.60
2023-02-03T13:33:26.708Z,6.30
2023-02-03T13:36:11.087Z,3.87
2023-02-03T13:39:18.904Z,3.40
2023-02-03T13:41:53.294Z,2.97
2023-02-03T13:44:26.808Z,2.53
2023-02-03T13:46:58.507Z,3.47
2023-02-03T13:49:30.888Z,5.63
2023-02-03T13:51:59.755Z,3.67
2023-02-03T13:54:31.758Z,5.07
2023-02-03T13:57:03.836Z,4.90
2023-02-03T13:59:43.377Z,3.30
2023-02-03T14:02:42.562Z,2.67
2023-02-03T14:05:51.030Z,4.90
2023-02-03T14:08:51.945Z,4.90
2023-02-03T14:11:46.132Z,6.47
2023-02-03T14:15:04.060Z,9.00
2023-02-03T14:18:21.756Z,7.03
2023-02-03T14:21:13.575Z,6.67
2023-02-03T14:23:58.977Z,7.13
2023-02-03T14:26:42.265Z,6.33
2023-02-03T14:29:25.861Z,6.47
2023-02-03T14:32:00.769Z,6.23
2023-02-03T14:34:33.036Z,5.40
2023-02-03T14:37:17.810Z,4.97
2023-02-03T14:40:33.655Z,7.17
2023-02-03T14:43:34.856Z,6.67
2023-02-03T14:46:32.343Z,8.43
2023-02-03T14:49:23.616Z,5.67
2023-02-03T14:52:09.375Z,6.67
2023-02-03T14:54:59.892Z,4.67
2023-02-03T14:57:40.700Z,7.00
2023-02-03T15:00:28.639Z,4.07
2023-02-03T15:03:25.732Z,6.43
2023-02-03T15:05:58.831Z,9.30
2023-02-03T15:08:42.318Z,6.93
2023-02-03T15:11:34.147Z,6.90
2023-02-03T15:14:26.998Z,5.20
2023-02-03T15:16:58.935Z,6.67
2023-02-03T15:19:33.025Z,8.43
2023-02-03T15:22:01.755Z,10.33
2023-02-03T15:24:37.877Z,5.60
2023-02-03T15:27:23.339Z,6.70
2023-02-03T15:29:51.831Z,6.90
2023-02-03T15:32:28.927Z,8.13
2023-02-03T15:34:59.362Z,7.63
2023-02-03T15:37:33.504Z,8.00
2023-02-03T15:40:07.985Z,6.97
2023-02-03T15:42:45.287Z,12.67
2023-02-03T15:45:31.682Z,7.17
2023-02-03T15:48:05.591Z,7.13
2023-02-03T15:50:38.137Z,10.43
2023-02-03T15:53:11.963Z,9.77
2023-02-03T15:55:45.151Z,8.77
2023-02-03T15:58:21.257Z,6.13
2023-02-03T16:00:53.419Z,9.97
2023-02-03T16:03:29.814Z,5.87
2023-02-03T16:06:00.239Z,7.10
2023-02-03T16:08:43.173Z,9.27
2023-02-03T16:11:33.390Z,8.10
2023-02-03T16:14:06.743Z,7.10
2023-02-03T16:16:43.676Z,7.23
2023-02-03T16:19:22.904Z,7.20
2023-02-03T16:21:56.941Z,7.67
2023-02-03T16:24:40.831Z,7.60
2023-02-03T16:27:34.503Z,6.27
2023-02-03T16:30:52.185Z,5.13
2023-02-03T16:33:38.303Z,6.03
2023-02-03T16:36:32.514Z,4.40
2023-02-03T16:39:23.077Z,6.50
2023-02-03T16:42:09.374Z,7.97
2023-02-03T16:44:55.680Z,8.60
2023-02-03T16:47:45.790Z,5.03
2023-02-03T16:50:38.537Z,6.90
2023-02-03T16:53:13.517Z,4.77
2023-02-03T16:55:42.258Z,7.20
2023-02-03T16:58:12.470Z,9.63
2023-02-03T17:00:42.013Z,7.47
2023-02-03T17:03:15.150Z,8.03
2023-02-03T17:05:45.734Z,6.50
2023-02-03T17:08:16.249Z,7.43
2023-02-03T17:10:47.937Z,8.43
2023-02-03T17:13:17.696Z,7.17
2023-02-03T17:15:48.137Z,5.93
2023-02-03T17:18:20.089Z,6.83
2023-02-03T17:20:49.424Z,5.43
2023-02-03T17:23:18.247Z,8.67
2023-02-03T17:25:49.269Z,6.80
2023-02-03T17:28:18.394Z,7.47
2023-02-03T17:30:46.980Z,6.00
2023-02-03T17:33:16.807Z,6.23
2023-02-03T17:35:46.639Z,7.97
2023-02-03T17:38:15.597Z,8.17
2023-02-03T17:54:42.906Z,5.47
2023-02-03T17:57:11.570Z,7.60
2023-02-03T17:59:39.944Z,6.10
2023-02-03T18:02:08.316Z,10.53
2023-02-03T18:04:38.552Z,9.60
2023-02-03T18:07:07.030Z,10.57
2023-02-03T18:09:35.511Z,9.00
2023-02-03T18:12:04.008Z,6.87
2023-02-03T18:14:32.851Z,7.37
2023-02-03T18:17:01.374Z,8.00
2023-02-03T18:19:29.898Z,7.70
2023-02-03T18:22:00.949Z,9.33
2023-02-03T18:24:30.649Z,6.53
2023-02-03T18:27:00.522Z,9.60
2023-02-03T18:29:29.770Z,7.63
2023-02-03T18:31:58.497Z,7.07
2023-02-03T18:34:27.009Z,9.13
2023-02-03T18:36:55.429Z,8.00
2023-02-03T18:39:25.544Z,11.80
2023-02-03T18:41:54.204Z,7.50
2023-02-03T18:44:24.864Z,8.77
2023-02-03T18:46:54.187Z,10.00
2023-02-03T18:49:23.560Z,7.33
2023-02-03T18:51:52.028Z,8.47
2023-02-03T18:54:20.816Z,5.17
2023-02-03T18:56:50.796Z,6.70
2023-02-03T18:59:19.610Z,9.07
2023-02-03T19:01:48.553Z,6.53
2023-02-03T19:04:16.953Z,6.23
2023-02-03T19:06:46.860Z,8.23
2023-02-03T19:09:17.985Z,8.73
2023-02-03T19:11:47.127Z,6.17
2023-02-03T19:14:17.411Z,7.47
2023-02-03T19:16:46.210Z,6.83
2023-02-03T19:19:15.138Z,8.07
2023-02-03T19:21:43.896Z,7.80
2023-02-03T19:24:14.948Z,8.07
2023-02-03T19:26:43.838Z,7.00
2023-02-03T19:29:12.440Z,7.17
2023-02-03T19:31:42.485Z,9.13
2023-02-03T19:34:12.883Z,6.30
2023-02-03T19:36:41.663Z,6.57
2023-02-03T19:39:10.076Z,6.97
2023-02-03T19:41:38.610Z,7.43
2023-02-03T19:44:07.918Z,8.70
2023-02-03T19:46:38.720Z,7.97
2023-02-03T19:49:13.023Z,6.80
2023-02-03T19:51:41.848Z,11.23
2023-02-03T19:54:13.828Z,5.60
2023-02-03T19:56:42.496Z,8.47
2023-02-03T19:59:11.539Z,5.17
2023-02-03T20:01:40.233Z,8.17
2023-02-03T20:04:10.429Z,6.40
2023-02-03T20:06:39.960Z,9.70
2023-02-03T20:09:08.627Z,11.60
2023-02-03T20:11:37.111Z,8.43
2023-02-03T20:14:06.347Z,8.13
2023-02-03T20:16:35.491Z,10.13
2023-02-03T20:19:04.333Z,7.20
2023-02-03T20:21:34.409Z,7.73
2023-02-03T20:24:03.181Z,8.13
2023-02-03T20:26:32.938Z,9.47
2023-02-03T20:29:01.690Z,6.40
2023-02-03T20:31:31.402Z,8.20
2023-02-03T20:33:59.858Z,5.13
2023-02-03T20:36:28.338Z,5.93
2023-02-03T20:38:58.938Z,6.10
2023-02-03T20:41:27.578Z,6.50
2023-02-03T20:43:56.360Z,6.67
2023-02-03T20:46:24.935Z,12.50
2023-02-03T20:48:53.405Z,8.67
2023-02-03T20:51:24.078Z,6.73
2023-02-03T20:53:52.869Z,9.40
2023-02-03T20:56:23.912Z,8.57
2023-02-03T20:58:52.467Z,8.03
2023-02-03T21:01:23.530Z,6.67
2023-02-03T21:04:10.692Z,8.47
2023-02-03T21:06:40.736Z,7.07
2023-02-03T21:09:16.071Z,7.77
2023-02-03T21:11:46.586Z,8.83
2023-02-03T21:14:21.467Z,7.67
2023-02-03T21:16:50.936Z,9.20
2023-02-03T21:19:32.889Z,9.00
2023-02-03T21:22:14.557Z,9.60
2023-02-03T21:24:47.833Z,6.43
2023-02-03T21:27:28.862Z,9.20
2023-02-03T21:29:58.597Z,11.17
2023-02-03T21:32:34.782Z,8.37
2023-02-03T21:35:03.274Z,7.40
2023-02-03T21:37:42.960Z,9.83
2023-02-03T21:40:31.404Z,5.43
2023-02-03T21:43:03.344Z,6.10
2023-02-03T21:45:42.689Z,8.10
2023-02-03T21:48:33.217Z,7.07
2023-02-03T21:51:04.827Z,7.10
2023-02-03T21:53:36.151Z,7.80
2023-02-03T21:56:19.243Z,7.23
2023-02-03T21:58:50.884Z,9.87
2023-02-03T22:01:22.971Z,6.77
2023-02-03T22:03:54.018Z,8.23
2023-02-03T22:06:30.598Z,7.87
2023-02-03T22:09:00.120Z,5.60
2023-02-03T22:11:33.722Z,9.10
2023-02-03T22:14:03.613Z,8.63
2023-02-03T22:16:32.524Z,6.23
2023-02-03T22:19:01.336Z,7.70
2023-02-03T22:21:29.818Z,9.00
2023-02-03T22:23:59.201Z,8.37
2023-02-03T22:26:27.880Z,8.43
2023-02-03T22:28:56.552Z,7.77
2023-02-03T22:31:27.063Z,10.37
2023-02-03T22:33:55.618Z,7.20
2023-02-03T22:36:25.260Z,9.30
2023-02-03T22:38:53.680Z,9.13
2023-02-03T22:41:22.396Z,8.93
2023-02-03T22:43:50.719Z,8.60
2023-02-03T22:46:19.469Z,6.33
2023-02-03T22:48:49.637Z,7.13
2023-02-03T22:51:18.105Z,7.23
2023-02-03T22:53:46.474Z,7.40
2023-02-03T22:56:14.860Z,8.87
2023-02-03T22:58:43.313Z,5.27
2023-02-03T23:01:12.001Z,6.43
2023-02-03T23:03:40.341Z,7.13
2023-02-03T23:06:13.935Z,4.97
2023-02-03T23:08:42.922Z,7.67
2023-02-03T23:11:11.611Z,7.00
2023-02-03T23:13:40.279Z,7.73
2023-02-03T23:16:12.170Z,6.30
2023-02-03T23:18:40.788Z,6.83
2023-02-03T23:21:11.297Z,7.23
2023-02-03T23:23:40.311Z,8.93
2023-02-03T23:26:08.743Z,10.90
2023-02-03T23:28:37.256Z,6.87
2023-02-03T23:31:06.289Z,5.23
2023-02-03T23:33:35.222Z,7.37
2023-02-03T23:36:02.850Z,7.70
2023-02-03T23:38:33.449Z,8.33
2023-02-03T23:41:04.756Z,5.70
2023-02-03T23:43:33.177Z,10.20
2023-02-03T23:46:02.141Z,7.97
2023-02-03T23:48:30.702Z,7.70
2023-02-03T23:50:59.379Z,5.97
2023-02-03T23:53:28.599Z,9.30
2023-02-03T23:55:58.361Z,7.93
2023-02-03T23:58:27.273Z,6.33
